Aérodrome :
LOGIN :

S'inscrire | Disclaimer

   EN    FR    IT 

 










Légende :    VFR   VFR Marginal   IFR   IFR Intensif   IFR Très Intensif
Visi : 
Plafond : 
>= 8 km
>= 3000ft
5 à 8 km
1000 à 3000 ft
1500m à 5 km
500 à 1000 ft
800 à 1500m
200 à 500 ft
< 800m
< 200 ft
Symboles :   Orages  Brouillard  Fortes neiges  Fortes précipitations  Vent > 20 kt
SIGMETs :   Divers  Orages  Givrage  Turbulence  Onde Orograph.  Cendres Volcan.







- Altitude de l'aérodrome : 266 ft
- Code IATA : NCL
- Voir les cartes d'approche


EGNT - Newcastle

DERNIER METAR :
  • 221220Z 27017KT 9999 FEW026 11/05 Q1034

METARs EXPIRÉS :
  • 221150Z 27018KT 9999 FEW026 11/05 Q1035
  • 221120Z 26018KT 9999 FEW024 11/05 Q1035
  • 221050Z 26014KT 9999 FEW024 10/05 Q1035
  • 221020Z 27012KT CAVOK 10/05 Q1036
  • 220950Z 26012KT CAVOK 10/04 Q1036

TAF TAF EGNT
Valide du 22 à 12h jusqu'au 23 à 12h UTC


221053Z 2212/2312 26015KT 9999 FEW025
TEMPO 2212/2312 27022G35KT
PROB30
TEMPO 2218/2312 28025G45KT
ATIS : +44 191 214 3400
Pas de NOTAMs connus pour ce terrain.
2 SIGMETs publiés pour la FIR Scottish (EGPX) :
 
Onde orographique forte
EGPX SIGMET 07 VALID 221000/221400 EGRR
EGPX SCOTTISH FIR SEV MTW FCST WI N5925 W00012 - N5623 W00103 - N5607 W00452 - N5850 W00412 - N5925 W00012 FL030/240 MOV S 15KT NC=
Turbulence forte
EGPX SIGMET 06 VALID 221000/221400 EGRR
EGPX SCOTTISH FIR SEV TURB FCST N OF N5825 AND W OF W00632 SFC/FL060 MOV ESE 40KT INTSF=



MET'MAP, la Météo Aéronautique d'un coup d'oeil ! - Copyright ORBIFLY Décembre 2007 - Disclaimer

ORBIFLY MET'MAP TEAM :

Programmation & Développement : Alexandra Zaïnal
Conception & Développement : Baudouin d'Aumeries
Co-Programmation & Développement : Marc-Olivier Méhu
Soutien technique & logistique : Manuel Goepfert

Contact : metmap@orbifly.com




SOURCES & CREDITS :

   NOAA